Laguepe — 9HAI9 — position and weather

sailwx.info

Track history (hours):
 
Tides and Currents Weather Stations Pressure Air Temp Water Temp Dewpoint Dewpoint Depression Visibility Wind Speed Wind Dir Waves Ship Positions

Laguepe

Last reported at 2015-Jul-29 07:15 UTC. Time now 2015-Aug-01 18:09 UTC.
Position N 43°42' E 004°37'.

Length 81 m; draft 3.2 m.

Type: Cargo ship. MMSI: 256681000.

Date/timePositionNaut miles runAvg speedWind from/ knotsBaromVisibWave heightAir tempDewpointWater temp
2015-Jul-29 07:15N 43°42' E 004°37'0 0.0
2015-Jul-29 06:30N 43°42' E 004°37'0 0.0
2015-Jul-29 05:32N 43°42' E 004°37'0 0.0
2015-Jul-29 04:29N 43°42' E 004°37'0 0.0
2015-Jul-29 03:23N 43°42' E 004°37'0 0.0
2015-Jul-29 02:29N 43°42' E 004°37'4 1.1
2015-Jul-28 22:31N 43°38' E 004°37'8 6.4
2015-Jul-28 21:14N 43°31' E 004°44'5 6.8
2015-Jul-28 20:33N 43°27' E 004°44'5 4.7
2015-Jul-28 19:33N 43°23' E 004°49'4 3.8
2015-Jul-28 18:33N 43°24' E 004°54'7 7.0
2015-Jul-28 17:33N 43°19' E 005°01'7 7.0
2015-Jul-28 16:33N 43°14' E 005°07'6 6.3
2015-Jul-28 15:34N 43°09' E 005°13'7 6.7
2015-Jul-28 14:33N 43°07' E 005°22'7 6.8
2015-Jul-28 13:33N 43°05' E 005°31'7 6.6
2015-Jul-28 12:33N 43°03' E 005°40'41 5.8
2015-Jul-28 05:27N 42°56' E 006°35'5 5.4
2015-Jul-28 04:33N 42°54' E 006°41'6 5.1
2015-Jul-28 03:28N 42°54' E 006°49'5 5.3
2015-Jul-28 02:28N 42°54' E 006°56'27 5.1
2015-Jul-27 21:10N 42°55' E 007°33'2 3.0
2015-Jul-27 20:33N 42°55' E 007°35'3 3.0
2015-Jul-27 19:33N 42°55' E 007°39'3 3.1
2015-Jul-27 18:33N 42°55' E 007°43'3 3.3
2015-Jul-27 17:33N 42°55' E 007°48'5 3.5
2015-Jul-27 16:09N 42°55' E 007°54'3 3.9
2015-Jul-27 15:27N 42°55' E 007°58'5 5.0
2015-Jul-27 14:33N 42°55' E 008°04'6 5.9
2015-Jul-27 13:33N 42°56' E 008°12'6 6.4
2015-Jul-27 12:33N 42°56' E 008°21'262 6.2
2015-Jul-25 18:07N 40°51' E 013°31'4 7.2
2015-Jul-25 17:32N 40°48' E 013°35'7 7.1
2015-Jul-25 16:34N 40°44' E 013°43'7 7.1
2015-Jul-25 15:33N 40°39' E 013°49'7 7.4
2015-Jul-25 14:33N 40°33' E 013°55'8 7.6
2015-Jul-25 13:34N 40°26' E 014°00'129 7.9
2015-Jul-24 21:11N 38°38' E 015°30'5 7.9
2015-Jul-24 20:33N 38°33' E 015°33'8 7.9
2015-Jul-24 19:32N 38°26' E 015°38'8 8.2
2015-Jul-24 18:33N 38°19' E 015°42'6 6.4
2015-Jul-24 17:33N 38°14' E 015°37'8 8.2
2015-Jul-24 16:33N 38°05' E 015°37'8 8.4
2015-Jul-24 15:34N 37°57' E 015°38'9 8.0
2015-Jul-24 14:25N 37°53' E 015°49'  
Track history (hours):
 
Tides and Currents Weather Stations Pressure Air Temp Water Temp Dewpoint Dewpoint Depression Visibility Wind Speed Wind Dir Waves Ship Positions

Laguepe

Last reported at 2015-Jul-29 07:15 UTC. Time now 2015-Aug-01 18:09 UTC.
Position N 43°42' E 004°37'.

Length 81 m; draft 3.2 m.

Type: Cargo ship. MMSI: 256681000.

Date/timePositionNaut miles runAvg speedWind from/ knotsBaromVisibWave heightAir tempDewpointWater temp
2015-Jul-29 07:15N 43°42' E 004°37'0 0.0
2015-Jul-29 06:30N 43°42' E 004°37'0 0.0
2015-Jul-29 05:32N 43°42' E 004°37'0 0.0
2015-Jul-29 04:29N 43°42' E 004°37'0 0.0
2015-Jul-29 03:23N 43°42' E 004°37'0 0.0
2015-Jul-29 02:29N 43°42' E 004°37'4 1.1
2015-Jul-28 22:31N 43°38' E 004°37'8 6.4
2015-Jul-28 21:14N 43°31' E 004°44'5 6.8
2015-Jul-28 20:33N 43°27' E 004°44'5 4.7
2015-Jul-28 19:33N 43°23' E 004°49'4 3.8
2015-Jul-28 18:33N 43°24' E 004°54'7 7.0
2015-Jul-28 17:33N 43°19' E 005°01'7 7.0
2015-Jul-28 16:33N 43°14' E 005°07'6 6.3
2015-Jul-28 15:34N 43°09' E 005°13'7 6.7
2015-Jul-28 14:33N 43°07' E 005°22'7 6.8
2015-Jul-28 13:33N 43°05' E 005°31'7 6.6
2015-Jul-28 12:33N 43°03' E 005°40'41 5.8
2015-Jul-28 05:27N 42°56' E 006°35'5 5.4
2015-Jul-28 04:33N 42°54' E 006°41'6 5.1
2015-Jul-28 03:28N 42°54' E 006°49'5 5.3
2015-Jul-28 02:28N 42°54' E 006°56'27 5.1
2015-Jul-27 21:10N 42°55' E 007°33'2 3.0
2015-Jul-27 20:33N 42°55' E 007°35'3 3.0
2015-Jul-27 19:33N 42°55' E 007°39'3 3.1
2015-Jul-27 18:33N 42°55' E 007°43'3 3.3
2015-Jul-27 17:33N 42°55' E 007°48'5 3.5
2015-Jul-27 16:09N 42°55' E 007°54'3 3.9
2015-Jul-27 15:27N 42°55' E 007°58'5 5.0
2015-Jul-27 14:33N 42°55' E 008°04'6 5.9
2015-Jul-27 13:33N 42°56' E 008°12'6 6.4
2015-Jul-27 12:33N 42°56' E 008°21'262 6.2
2015-Jul-25 18:07N 40°51' E 013°31'4 7.2
2015-Jul-25 17:32N 40°48' E 013°35'7 7.1
2015-Jul-25 16:34N 40°44' E 013°43'7 7.1
2015-Jul-25 15:33N 40°39' E 013°49'7 7.4
2015-Jul-25 14:33N 40°33' E 013°55'8 7.6
2015-Jul-25 13:34N 40°26' E 014°00'129 7.9
2015-Jul-24 21:11N 38°38' E 015°30'5 7.9
2015-Jul-24 20:33N 38°33' E 015°33'8 7.9
2015-Jul-24 19:32N 38°26' E 015°38'8 8.2
2015-Jul-24 18:33N 38°19' E 015°42'6 6.4
2015-Jul-24 17:33N 38°14' E 015°37'8 8.2
2015-Jul-24 16:33N 38°05' E 015°37'8 8.4
2015-Jul-24 15:34N 37°57' E 015°38'9 8.0
2015-Jul-24 14:25N 37°53' E 015°49'  

Dump ship's entire track history